Bookmark and Share
Track history (hours):
 

Eko 4

Last reported at 2014-Apr-20 13:33 UTC. Time now 2014-Apr-20 16:05 UTC.
Position N 37°39' E 023°47'.

Length 88 m; draft 5.5 m.

Type: Ship (hazmat cat A). MMSI: 240912000.

NotesDate/timePositionNaut miles runAvg speedWind from/ knotsBaromVisibWave heightAir tempDewpointWater temp
2014-Apr-20 13:33N 37°39' E 023°47'10 9.5
2014-Apr-20 12:33N 37°46' E 023°39'10 9.8
2014-Apr-20 11:33N 37°56' E 023°36'6 5.8
2014-Apr-20 10:29N 38°02' E 023°36'0 0.1
2014-Apr-20 09:32N 38°02' E 023°36'0 0.0
2014-Apr-20 08:27N 38°02' E 023°36'0 0.0
2014-Apr-20 06:17N 38°02' E 023°36'0 0.0
2014-Apr-19 21:05N 38°02' E 023°36'0 0.0
2014-Apr-19 20:21N 38°02' E 023°36'0 0.0
2014-Apr-19 18:04N 38°02' E 023°36'5 1.0
2014-Apr-19 13:33N 37°57' E 023°33'8 7.9
2014-Apr-19 12:33N 37°51' E 023°39'1110.5
2014-Apr-19 11:33N 37°41' E 023°45'4110.2
2014-Apr-19 07:32N 37°10' E 024°18'11 9.4
2014-Apr-19 06:24N 37°02' E 024°27'12 9.6
2014-Apr-19 05:11N 36°53' E 024°36'6 9.9
2014-Apr-19 04:33N 36°48' E 024°41'1110.2
2014-Apr-19 03:30N 36°38' E 024°45'1010.3
2014-Apr-19 02:32N 36°28' E 024°48'1010.5
2014-Apr-19 01:33N 36°18' E 024°50'1110.6
2014-Apr-19 00:33N 36°08' E 024°53'1110.5
2014-Apr-18 23:33N 35°57' E 024°56'30 0.8
2014-Apr-17 08:07N 35°28' E 025°03'5 9.1
2014-Apr-17 07:32N 35°33' E 025°00'9 9.6
2014-Apr-17 06:33N 35°41' E 024°55'1010.0
2014-Apr-17 05:33N 35°50' E 024°49'10 9.7
2014-Apr-17 04:33N 35°58' E 024°42'9 9.2
2014-Apr-17 03:33N 36°06' E 024°37'9 9.5
2014-Apr-17 02:33N 36°14' E 024°31'10 9.8
2014-Apr-17 01:33N 36°23' E 024°26'10 9.6
2014-Apr-17 00:33N 36°31' E 024°20'9 9.2
2014-Apr-16 23:32N 36°39' E 024°14'10 8.9
2014-Apr-16 22:27N 36°49' E 024°10'7 8.3
2014-Apr-16 21:33N 36°56' E 024°08'8 7.8
2014-Apr-16 20:33N 37°03' E 024°04'10 7.5
2014-Apr-16 19:10N 37°13' E 023°59'25 6.9
2014-Apr-16 15:28N 37°36' E 023°45'6 7.0
2014-Apr-16 14:33N 37°41' E 023°42'8 7.8
2014-Apr-16 13:33N 37°48' E 023°37'8 8.1
2014-Apr-16 12:34N 37°56' E 023°35'5 0.3
2014-Apr-15 18:26N 38°01' E 023°32'0 0.1
2014-Apr-15 15:28N 38°01' E 023°32'1 0.1
2014-Apr-15 09:31N 38°01' E 023°32'6 6.2
2014-Apr-15 08:34N 37°55' E 023°33'0 0.1
2014-Apr-15 06:29N 37°55' E 023°33'0 0.0
2014-Apr-15 05:29N 37°55' E 023°33'0 0.0
2014-Apr-14 22:34N 37°55' E 023°33'3 3.2
2014-Apr-14 21:34N 37°53' E 023°36'1110.4
2014-Apr-14 20:33N 37°44' E 023°43'24 5.9
2014-Apr-14 16:32N 37°57' E 024°08'  

Dump ship's entire track history

sailing weather and tide predictions

Eko 4 — SVAR8 — position and weather